Pas de vigilance météorologique particulière.   -   Il n'y a aucun avertissement

Nearby METAR Reports

 

LEZL - Sevilla, Spain
Distance from station: ESE 25km
Mise jour: 15/11/2018 22:30
clair
clair
 Wind from varies
Vent: varies 4 km/h
Temprature: 15°C
Point de rose: 13°C
Humidit: 88%
Baromtre: 1016 hPa
Rsum: clair
Visibility: greater than 10 km
2018/11/15 21:30 LEZL 152130Z VRB02KT CAVOK 15/13 Q1016 NOSIG
LEMO - Morn, Spain
Distance from station: SE 65km
Mise jour: 15/11/2018 23:00
partiellement nuageux
partiellement nuageux
 Wind from varies
Vent: varies 2 km/h
Temprature: 12°C
Point de rose: 11°C
Humidit: 94%
Baromtre: 1016 hPa
Clouds: partiellement nuageux
Visibility: 8 km
2018/11/15 22:00 LEMO 152200Z VRB01KT 8000 NSC 12/11 Q1016 NOS
LEJR - Jerz, Spain
Distance from station: S 87km
Mise jour: 15/11/2018 23:00
clair
clair
 Wind from varies
Vent: varies 2 km/h
Temprature: 13°C
Point de rose: 12°C
Humidit: 94%
Baromtre: 1016 hPa
Rsum: clair
Visibility: greater than 10 km
2018/11/15 22:00 LEJR 152200Z VRB01KT CAVOK 13/12 Q1016
 
LERT - Rota, Spain
Distance from station: S 101km
Mise jour: 15/11/2018 22:00
clair
clair
 Wind from E
Vent: E 7 km/h
Temprature: 15°C
Point de rose: 13°C
Humidit: 88%
Baromtre: 1015 hPa
Rsum: clair
Visibility: greater than 10 km
2018/11/15 21:00 LERT 152100Z 10004KT 070V140 CAVOK 15/13 Q1015 NOSIG
LEMG - Mlaga, Spain
Distance from station: ESE 178km
Mise jour: 15/11/2018 22:30
nuageux
nuageux
 Wind from varies
Vent: varies 4 km/h
Temprature: 17°C
Point de rose: 15°C
Humidit: 88%
Baromtre: 1017 hPa
Clouds: nuageux
Visibility: 10 km
Cloud details: Few Clouds 305 m
nuageux 610 m
2018/11/15 21:30 LEMG 152130Z VRB02KT 9999 FEW010 BKN020 17/15 Q1017 NOSIG
LEBA - Crdoba, Spain
Distance from station: ENE 123km
Mise jour: 15/11/2018 22:30
clair
clair
 Wind from NNO
Vent: NNO 2 km/h
Temprature: 11°C
Point de rose: 10°C
Humidit: 94%
Baromtre: 1017 hPa
Rsum: clair
Visibility: greater than 10 km
2018/11/15 21:30 LEBA 152130Z AUTO 33001KT CAVOK 11/10 Q1017
 
LEGR - Granada, Spain
Distance from station: E 215km
Mise jour: 15/11/2018 22:30
nuageux
nuageux
 Wind from calm
Vent: calme
Temprature: 13°C
Point de rose: 12°C
Humidit: 94%
Baromtre: 1018 hPa
Clouds: nuageux
Visibility: 10 km
Cloud details: nuageux 1219 m
2018/11/15 21:30 LEGR 152130Z 00000KT 9999 BKN040 13/12 Q1018
LEAM - Almera, Spain
Distance from station: E 344km
Mise jour: 15/11/2018 22:30
clair
clair
 Wind from N
Vent: N 11 km/h
Temprature: 16°C
Point de rose: 13°C
Humidit: 83%
Baromtre: 1017 hPa
Rsum: clair
Visibility: greater than 10 km
2018/11/15 21:30 LEAM 152130Z 36006KT CAVOK 16/13 Q1017
GCLP - Las Palmas/Aeropuerto, Spain
Distance from station: SO 1410km
Mise jour: 15/11/2018 22:30
partiellement nuageux
partiellement nuageux
 Wind from NNO
Vent: NNO 17 km/h
Temprature: 20°C
Point de rose: 12°C
Humidit: 60%
Baromtre: 1015 hPa
Clouds: partiellement nuageux
Visibility: 10 km
Cloud details: partiellement nuageux 1372 m
2018/11/15 21:30 GCLP 152130Z 34009KT 300V360 9999 SCT045 20/12 Q1015 NOSIG
 
LEMD - Madrid/Barajas, Spain
Distance from station: NNE 402km
Mise jour: 15/11/2018 22:30
partiellement nuageux
partiellement nuageux
 Wind from calm
Vent: calme
Temprature: 13°C
Point de rose: 12°C
Humidit: 94%
Baromtre: 1020 hPa
Clouds: partiellement nuageux
Visibility: 10 km
Cloud details: partiellement nuageux 1219 m
partiellement nuageux 1829 m
2018/11/15 21:30 LEMD 152130Z 00000KT 9999 SCT040 SCT060 13/12 Q1020 NOSIG
LEVD - Valladolid, Spain
Distance from station: N 492km
Mise jour: 15/11/2018 21:30
NOT Current
clair
clair
 Wind from E
Vent: E 11 km/h
Temprature: 10°C
Wind Chill: 8°C
Point de rose: 8°C
Humidit: 88%
Baromtre: 1019 hPa
Rsum: clair
Visibility: greater than 10 km
2018/11/15 20:30 LEVD 152030Z 08006KT CAVOK 10/08 Q1019
LEBL - Barcelona, Spain
Distance from station: NE 816km
Mise jour: 15/11/2018 22:30
Few Clouds
Few Clouds
 Wind from NE
Vent: NE 17 km/h
Temprature: 16°C
Point de rose: 14°C
Humidit: 88%
Baromtre: 1021 hPa
Clouds: Few Clouds
Visibility: 10 km
Cloud details: Few Clouds 305 m
2018/11/15 21:30 LEBL 152130Z 04009KT 350V090 9999 FEW010 16/14 Q1021 NOSIG